Cala Pula — IBID — position and weather

sailwx.info

Track history (hours):
 
Tides and Currents Weather Stations Pressure Air Temp Water Temp Dewpoint Dewpoint Depression Visibility Wind Speed Wind Dir Waves Ship Positions

Cala Pula

Last reported at 2015-Jan-24 17:33 UTC. Time now 2015-Jan-29 18:27 UTC.
Position N 35°60' W 005°25'.

Length 189 m; draft 8 m.

Type: Cargo ship. MMSI: 247585000.

Date/timePositionNaut miles runAvg speedWind from/ knotsBaromVisibWave heightAir tempDewpointWater temp
2015-Jan-24 17:33N 35°60' W 005°25'69920.5
2015-Jan-23 07:25N 38°45' E 008°50'2021.5
2015-Jan-23 06:31N 38°50' E 009°14'28710.9
2015-Jan-22 04:16N 43°36' E 009°05'2722.1
2015-Jan-22 03:03N 43°58' E 008°43'1121.2
2015-Jan-22 02:31N 44°08' E 008°35'1010.2
2015-Jan-22 01:33N 44°16' E 008°27'0 0.0
2015-Jan-22 00:33N 44°16' E 008°27'0 0.0
2015-Jan-21 23:30N 44°16' E 008°27'0 0.0
2015-Jan-21 22:45N 44°16' E 008°27'0 0.0
2015-Jan-21 21:03N 44°16' E 008°27'0 0.0
2015-Jan-21 19:16N 44°16' E 008°27'0 0.0
2015-Jan-21 17:15N 44°16' E 008°27'0 0.0
2015-Jan-21 16:16N 44°16' E 008°27'0 0.0
2015-Jan-21 15:03N 44°16' E 008°27'0 0.0
2015-Jan-21 07:30N 44°16' E 008°27'4 1.1
2015-Jan-21 04:08N 44°13' E 008°31'8518.6
2015-Jan-20 23:33N 43°14' E 007°07'2019.9
2015-Jan-20 22:33N 43°01' E 006°46'9919.5
2015-Jan-20 17:28N 42°52' E 004°30'1920.6
2015-Jan-20 16:33N 42°45' E 004°07'2120.7
2015-Jan-20 15:33N 42°32' E 003°45'2421.3
2015-Jan-20 14:25N 42°11' E 003°28'2220.6
2015-Jan-20 13:22N 41°50' E 003°19'4321.2
2015-Jan-20 11:21N 41°25' E 002°34'  
Track history (hours):
 
Tides and Currents Weather Stations Pressure Air Temp Water Temp Dewpoint Dewpoint Depression Visibility Wind Speed Wind Dir Waves Ship Positions

Cala Pula

Last reported at 2015-Jan-24 17:33 UTC. Time now 2015-Jan-29 18:27 UTC.
Position N 35°60' W 005°25'.

Length 189 m; draft 8 m.

Type: Cargo ship. MMSI: 247585000.

Date/timePositionNaut miles runAvg speedWind from/ knotsBaromVisibWave heightAir tempDewpointWater temp
2015-Jan-24 17:33N 35°60' W 005°25'69920.5
2015-Jan-23 07:25N 38°45' E 008°50'2021.5
2015-Jan-23 06:31N 38°50' E 009°14'28710.9
2015-Jan-22 04:16N 43°36' E 009°05'2722.1
2015-Jan-22 03:03N 43°58' E 008°43'1121.2
2015-Jan-22 02:31N 44°08' E 008°35'1010.2
2015-Jan-22 01:33N 44°16' E 008°27'0 0.0
2015-Jan-22 00:33N 44°16' E 008°27'0 0.0
2015-Jan-21 23:30N 44°16' E 008°27'0 0.0
2015-Jan-21 22:45N 44°16' E 008°27'0 0.0
2015-Jan-21 21:03N 44°16' E 008°27'0 0.0
2015-Jan-21 19:16N 44°16' E 008°27'0 0.0
2015-Jan-21 17:15N 44°16' E 008°27'0 0.0
2015-Jan-21 16:16N 44°16' E 008°27'0 0.0
2015-Jan-21 15:03N 44°16' E 008°27'0 0.0
2015-Jan-21 07:30N 44°16' E 008°27'4 1.1
2015-Jan-21 04:08N 44°13' E 008°31'8518.6
2015-Jan-20 23:33N 43°14' E 007°07'2019.9
2015-Jan-20 22:33N 43°01' E 006°46'9919.5
2015-Jan-20 17:28N 42°52' E 004°30'1920.6
2015-Jan-20 16:33N 42°45' E 004°07'2120.7
2015-Jan-20 15:33N 42°32' E 003°45'2421.3
2015-Jan-20 14:25N 42°11' E 003°28'2220.6
2015-Jan-20 13:22N 41°50' E 003°19'4321.2
2015-Jan-20 11:21N 41°25' E 002°34'  

Dump ship's entire track history